createdAt,value
2018-10-07T00:00:15.258Z,8.70
2018-10-07T00:02:43.635Z,8.93
2018-10-07T00:05:12.060Z,8.60
2018-10-07T00:07:40.496Z,9.13
2018-10-07T00:10:08.952Z,8.63
2018-10-07T00:12:37.302Z,8.70
2018-10-07T00:15:05.927Z,9.47
2018-10-07T00:17:34.391Z,9.57
2018-10-07T00:20:02.809Z,9.13
2018-10-07T00:22:31.178Z,8.83
2018-10-07T00:24:59.577Z,9.13
2018-10-07T00:27:27.968Z,10.07
2018-10-07T00:29:56.323Z,9.40
2018-10-07T00:32:24.719Z,9.47
2018-10-07T00:34:53.131Z,8.87
2018-10-07T00:37:35.231Z,9.10
2018-10-07T00:40:03.744Z,9.87
2018-10-07T00:42:32.132Z,9.20
2018-10-07T00:45:00.538Z,8.90
2018-10-07T00:47:28.916Z,8.93
2018-10-07T00:49:57.318Z,8.93
2018-10-07T00:52:25.880Z,8.77
2018-10-07T00:54:54.286Z,11.20
2018-10-07T00:57:22.874Z,9.30
2018-10-07T00:59:51.296Z,10.47
2018-10-07T01:02:19.671Z,8.77
2018-10-07T01:04:48.039Z,9.27
2018-10-07T01:07:16.447Z,10.37
2018-10-07T01:09:44.855Z,9.43
2018-10-07T01:12:13.251Z,10.27
2018-10-07T01:14:41.641Z,8.90
2018-10-07T01:17:10.047Z,8.67
2018-10-07T01:19:38.434Z,9.27
2018-10-07T01:22:07.190Z,9.03
2018-10-07T01:24:35.543Z,9.30
2018-10-07T01:27:04.044Z,9.13
2018-10-07T01:29:32.449Z,8.60
2018-10-07T01:32:00.852Z,10.00
2018-10-07T01:34:29.309Z,9.80
2018-10-07T01:36:57.706Z,9.77
2018-10-07T01:39:26.242Z,9.50
2018-10-07T01:41:54.614Z,12.70
2018-10-07T01:44:23.011Z,9.10
2018-10-07T01:46:51.417Z,9.90
2018-10-07T01:49:19.823Z,9.07
2018-10-07T01:51:48.211Z,9.30
2018-10-07T01:54:16.619Z,9.77
2018-10-07T01:56:45.155Z,8.83
2018-10-07T01:59:13.570Z,9.43
2018-10-07T02:01:41.934Z,10.10
2018-10-07T02:04:10.323Z,8.73
2018-10-07T02:06:39.396Z,9.63
2018-10-07T02:09:09.304Z,11.90
2018-10-07T02:11:37.698Z,11.30
2018-10-07T02:14:06.178Z,8.57
2018-10-07T02:16:34.939Z,10.03
2018-10-07T02:19:03.475Z,10.27
2018-10-07T02:21:33.777Z,9.50
2018-10-07T02:24:02.148Z,8.93
2018-10-07T02:26:31.279Z,10.33
2018-10-07T02:28:59.652Z,9.73
2018-10-07T02:31:28.061Z,9.73
2018-10-07T02:33:56.917Z,10.63
2018-10-07T02:36:25.363Z,8.70
2018-10-07T02:38:53.750Z,13.23
2018-10-07T02:41:22.161Z,9.57
2018-10-07T02:43:50.534Z,10.67
2018-10-07T02:46:18.955Z,10.10
2018-10-07T02:48:47.344Z,10.10
2018-10-07T02:51:15.753Z,12.87
2018-10-07T02:53:44.176Z,10.00
2018-10-07T02:56:12.584Z,9.40
2018-10-07T02:58:40.968Z,9.60
2018-10-07T03:01:09.417Z,9.20
2018-10-07T03:03:37.766Z,8.73
2018-10-07T03:06:06.194Z,8.67
2018-10-07T03:08:34.637Z,9.03
2018-10-07T03:11:03.033Z,9.77
2018-10-07T03:13:31.372Z,9.00
2018-10-07T03:15:59.766Z,9.73
2018-10-07T03:18:28.149Z,9.57
2018-10-07T03:20:56.539Z,10.27
2018-10-07T03:23:25.226Z,8.97
2018-10-07T03:25:53.554Z,11.23
2018-10-07T03:28:22.250Z,10.67
2018-10-07T03:30:50.880Z,10.10
2018-10-07T03:33:19.297Z,11.20
2018-10-07T03:35:55.627Z,10.93
2018-10-07T03:38:24.007Z,11.00
2018-10-07T03:40:52.451Z,9.70
2018-10-07T03:43:20.841Z,11.63
2018-10-07T03:45:49.279Z,11.37
2018-10-07T03:48:17.911Z,10.60
2018-10-07T03:50:46.304Z,11.57
2018-10-07T03:53:14.686Z,11.57
2018-10-07T03:55:43.087Z,10.53
2018-10-07T03:58:11.462Z,11.87
2018-10-07T04:00:39.914Z,38.57
2018-10-07T04:03:08.316Z,37.67
2018-10-07T04:05:36.819Z,11.13
2018-10-07T04:08:05.219Z,11.87
2018-10-07T04:10:33.654Z,10.50
2018-10-07T04:13:02.028Z,14.63
2018-10-07T04:15:30.406Z,11.23
2018-10-07T04:17:59.029Z,10.77
2018-10-07T04:20:27.664Z,11.13
2018-10-07T04:22:56.057Z,11.63
2018-10-07T04:25:24.442Z,10.27
2018-10-07T04:27:53.158Z,10.20
2018-10-07T04:30:21.540Z,11.07
2018-10-07T04:32:49.930Z,11.23
2018-10-07T04:35:18.620Z,11.23
2018-10-07T04:37:46.996Z,10.43
2018-10-07T04:40:15.411Z,10.53
2018-10-07T04:42:44.065Z,10.50
2018-10-07T04:45:12.478Z,11.73
2018-10-07T04:47:41.132Z,10.37
2018-10-07T04:50:09.684Z,12.07
2018-10-07T04:52:38.428Z,11.40
2018-10-07T04:55:06.828Z,10.53
2018-10-07T04:57:35.152Z,14.33
2018-10-07T05:00:03.584Z,11.17
2018-10-07T05:02:31.956Z,11.67
2018-10-07T05:05:00.349Z,12.30
2018-10-07T05:07:28.821Z,12.00
2018-10-07T05:10:08.520Z,12.40
2018-10-07T05:12:37.044Z,12.20
2018-10-07T05:15:06.742Z,12.13
2018-10-07T05:17:36.376Z,12.53
2018-10-07T05:20:05.239Z,12.17
2018-10-07T05:22:33.695Z,12.67
2018-10-07T05:25:02.142Z,12.17
2018-10-07T05:27:30.536Z,11.97
2018-10-07T05:29:59.107Z,12.10
2018-10-07T05:32:27.537Z,12.60
2018-10-07T05:34:55.924Z,12.80
2018-10-07T05:37:24.348Z,12.73
2018-10-07T05:39:52.762Z,14.17
2018-10-07T05:42:21.192Z,15.93
2018-10-07T05:44:49.596Z,14.90
2018-10-07T05:47:17.984Z,18.00
2018-10-07T05:49:46.407Z,20.03
2018-10-07T05:52:14.789Z,19.37
2018-10-07T05:54:43.311Z,24.10
2018-10-07T05:57:11.763Z,22.83
2018-10-07T05:59:40.232Z,24.80
2018-10-07T06:02:09.334Z,25.13
2018-10-07T06:04:41.715Z,25.13
2018-10-07T06:07:10.208Z,24.10
2018-10-07T06:09:39.012Z,25.00
2018-10-07T06:12:07.625Z,30.20
2018-10-07T06:14:47.318Z,28.63
2018-10-07T06:17:15.714Z,28.17
2018-10-07T06:19:44.144Z,32.27
2018-10-07T06:22:12.590Z,32.30
2018-10-07T06:24:41.047Z,29.23
2018-10-07T06:27:09.608Z,35.90
2018-10-07T06:29:38.049Z,36.53
2018-10-07T06:32:06.475Z,38.73
2018-10-07T06:34:34.953Z,43.30
2018-10-07T06:37:03.452Z,38.50
2018-10-07T06:39:31.937Z,33.83
2018-10-07T06:42:00.478Z,35.27
2018-10-07T06:44:29.244Z,39.07
2018-10-07T06:46:57.651Z,42.13
2018-10-07T06:49:26.048Z,36.87
2018-10-07T06:51:54.528Z,42.40
2018-10-07T06:54:22.951Z,39.53
2018-10-07T06:56:51.726Z,42.73
2018-10-07T06:59:20.157Z,47.13
2018-10-07T07:01:48.664Z,47.00
2018-10-07T07:04:17.060Z,48.70
2018-10-07T07:06:45.564Z,48.37
2018-10-07T07:09:14.361Z,51.83
2018-10-07T07:11:42.908Z,56.37
2018-10-07T07:14:11.286Z,58.10
2018-10-07T07:16:40.011Z,77.43
2018-10-07T07:19:08.421Z,56.90
2018-10-07T07:21:37.139Z,57.23
2018-10-07T07:24:05.575Z,58.90
2018-10-07T07:26:34.554Z,64.93
2018-10-07T07:29:03.053Z,65.33
2018-10-07T07:31:31.605Z,64.97
2018-10-07T07:33:59.938Z,62.87
2018-10-07T07:36:28.903Z,66.93
2018-10-07T07:38:57.349Z,64.47
2018-10-07T07:41:25.757Z,60.10
2018-10-07T07:43:54.200Z,60.07
2018-10-07T07:46:22.867Z,60.67
2018-10-07T07:48:51.325Z,58.93
2018-10-07T07:51:20.075Z,56.80
2018-10-07T07:53:48.498Z,61.37
2018-10-07T07:56:16.912Z,64.53
2018-10-07T07:58:45.528Z,64.97
2018-10-07T08:01:14.342Z,62.43
2018-10-07T08:03:42.816Z,66.67
2018-10-07T08:06:11.539Z,62.73
2018-10-07T08:08:40.024Z,67.03
2018-10-07T08:11:08.403Z,59.33
2018-10-07T08:13:36.820Z,62.67
2018-10-07T08:16:05.163Z,67.83
2018-10-07T08:18:33.564Z,58.10
2018-10-07T08:21:01.940Z,64.27
2018-10-07T08:23:30.405Z,64.30
2018-10-07T08:25:59.281Z,62.60
2018-10-07T08:28:27.758Z,59.67
2018-10-07T08:30:56.120Z,57.03
2018-10-07T08:33:24.572Z,68.10
2018-10-07T08:35:53.080Z,58.33
2018-10-07T08:38:21.468Z,62.23
2018-10-07T08:40:49.884Z,57.70
2018-10-07T08:43:18.343Z,53.73
2018-10-07T08:45:46.750Z,57.23
2018-10-07T08:48:15.708Z,55.07
2018-10-07T08:50:44.145Z,53.50
2018-10-07T08:53:13.004Z,49.23
2018-10-07T08:55:41.464Z,54.83
2018-10-07T08:58:10.654Z,53.20
2018-10-07T09:00:39.022Z,51.70
2018-10-07T09:03:07.460Z,45.23
2018-10-07T09:05:35.899Z,52.73
2018-10-07T09:08:04.434Z,47.70
2018-10-07T09:10:32.856Z,46.63
2018-10-07T09:13:02.178Z,44.87
2018-10-07T09:15:30.582Z,45.30
2018-10-07T09:17:59.000Z,40.97
2018-10-07T09:20:27.412Z,36.77
2018-10-07T09:22:55.801Z,33.63
2018-10-07T09:25:24.408Z,32.43
2018-10-07T09:27:55.327Z,31.97
2018-10-07T09:30:23.780Z,33.77
2018-10-07T09:32:52.209Z,30.73
2018-10-07T09:35:20.682Z,29.57
2018-10-07T09:37:49.112Z,25.03
2018-10-07T09:40:17.514Z,24.37
2018-10-07T09:42:45.914Z,23.63
2018-10-07T09:45:14.340Z,25.17
2018-10-07T09:47:43.038Z,18.17
2018-10-07T09:50:11.405Z,25.17
2018-10-07T09:52:39.841Z,15.50
2018-10-07T09:55:08.375Z,16.27
2018-10-07T09:57:36.771Z,15.53
2018-10-07T10:00:05.389Z,16.57
2018-10-07T10:02:33.765Z,14.03
2018-10-07T10:05:02.218Z,14.37
2018-10-07T10:07:30.633Z,14.93
2018-10-07T10:09:59.039Z,12.03
2018-10-07T10:12:27.449Z,10.90
2018-10-07T10:14:56.182Z,12.87
2018-10-07T10:17:25.080Z,11.97
2018-10-07T10:20:03.435Z,10.17
2018-10-07T10:24:46.452Z,11.80
2018-10-07T10:28:21.041Z,9.83
2018-10-07T10:31:24.893Z,12.80
2018-10-07T10:34:06.207Z,11.20
2018-10-07T10:36:43.615Z,8.47
2018-10-07T10:40:16.616Z,9.43
2018-10-07T10:44:55.457Z,9.90
2018-10-07T10:47:35.758Z,9.00
2018-10-07T10:50:14.691Z,12.40
2018-10-07T10:52:47.534Z,8.97
2018-10-07T10:55:36.022Z,8.83
2018-10-07T10:58:08.230Z,6.97
2018-10-07T11:00:45.473Z,6.43
2018-10-07T11:04:21.689Z,8.57
2018-10-07T11:07:00.676Z,7.07
2018-10-07T11:12:09.535Z,7.43
2018-10-07T11:15:56.623Z,6.57
2018-10-07T11:18:39.189Z,5.90
2018-10-07T11:23:24.371Z,5.40
2018-10-07T11:26:03.084Z,5.80
2018-10-07T11:28:40.019Z,7.03
2018-10-07T11:33:18.036Z,7.93
2018-10-07T11:35:51.882Z,5.13
2018-10-07T11:38:29.242Z,3.97
2018-10-07T11:41:06.113Z,5.20
2018-10-07T11:43:41.955Z,3.93
2018-10-07T11:46:18.646Z,3.50
2018-10-07T11:48:53.562Z,3.80
2018-10-07T11:53:35.774Z,5.87
2018-10-07T11:56:04.221Z,2.73
2018-10-07T11:58:32.891Z,4.13
2018-10-07T12:01:01.286Z,3.83
2018-10-07T12:03:30.137Z,3.40
2018-10-07T12:05:58.551Z,5.17
2018-10-07T12:08:27.034Z,2.50
2018-10-07T12:10:55.415Z,1.90
2018-10-07T12:13:23.825Z,1.70
2018-10-07T12:15:52.223Z,3.13
2018-10-07T12:18:20.707Z,1.57
2018-10-07T12:20:49.134Z,2.13
2018-10-07T12:23:17.540Z,3.43
2018-10-07T12:25:45.969Z,1.93
2018-10-07T12:28:14.613Z,2.10
2018-10-07T12:30:43.021Z,2.13
2018-10-07T12:33:11.461Z,1.50
2018-10-07T12:35:39.897Z,33.10
2018-10-07T12:38:08.319Z,1.50
2018-10-07T12:40:36.803Z,1.67
2018-10-07T12:43:05.212Z,1.63
2018-10-07T12:45:33.644Z,1.73
2018-10-07T12:48:02.055Z,2.37
2018-10-07T12:50:30.400Z,1.37
2018-10-07T12:53:00.334Z,2.23
2018-10-07T12:55:28.756Z,1.00
2018-10-07T12:57:57.400Z,1.00
2018-10-07T13:00:25.860Z,1.33
2018-10-07T13:02:54.258Z,1.57
2018-10-07T13:05:22.678Z,2.00
2018-10-07T13:07:51.225Z,1.57
2018-10-07T13:10:19.698Z,1.90
2018-10-07T13:12:48.103Z,2.57
2018-10-07T13:15:16.488Z,2.23
2018-10-07T13:17:44.987Z,3.67
2018-10-07T13:20:13.453Z,1.90
2018-10-07T13:22:41.881Z,2.40
2018-10-07T13:25:10.272Z,2.33
2018-10-07T13:27:38.851Z,1.27
2018-10-07T13:30:07.472Z,3.10
2018-10-07T13:32:35.923Z,10.50
2018-10-07T13:35:04.374Z,2.57
2018-10-07T13:37:34.492Z,3.23
2018-10-07T13:40:03.052Z,1.73
2018-10-07T13:42:31.390Z,2.07
2018-10-07T13:44:59.816Z,4.00
2018-10-07T13:47:28.384Z,3.17
2018-10-07T13:49:56.838Z,1.80
2018-10-07T13:52:25.333Z,1.90
2018-10-07T13:54:53.776Z,1.43
2018-10-07T13:57:22.164Z,2.23
2018-10-07T13:59:50.561Z,1.93
2018-10-07T14:02:18.963Z,1.93
2018-10-07T14:04:47.348Z,2.03
2018-10-07T14:07:15.994Z,0.90
2018-10-07T14:09:44.417Z,1.97
2018-10-07T14:12:12.862Z,1.23
2018-10-07T14:14:41.250Z,1.10
2018-10-07T14:17:09.702Z,0.90
2018-10-07T14:19:38.223Z,1.20
2018-10-07T14:22:06.767Z,1.10
2018-10-07T14:24:35.261Z,1.10
2018-10-07T14:27:03.721Z,0.50
2018-10-07T14:29:32.127Z,1.20
2018-10-07T14:32:00.573Z,1.03
2018-10-07T14:34:29.061Z,0.70
2018-10-07T14:36:57.787Z,1.37
2018-10-07T14:39:26.399Z,0.70
2018-10-07T14:41:54.821Z,1.30
2018-10-07T14:44:23.247Z,0.70
2018-10-07T14:46:51.683Z,0.63
2018-10-07T14:49:20.688Z,1.17
2018-10-07T14:51:49.149Z,1.20
2018-10-07T14:54:17.551Z,1.60
2018-10-07T14:56:45.927Z,0.87
2018-10-07T14:59:14.461Z,0.57
2018-10-07T15:01:42.846Z,0.60
2018-10-07T15:04:11.221Z,0.70
2018-10-07T15:06:40.079Z,0.50
2018-10-07T15:09:10.102Z,0.50
2018-10-07T15:11:38.533Z,1.13
2018-10-07T15:14:07.340Z,0.60
2018-10-07T15:16:35.942Z,5.60
2018-10-07T15:19:04.436Z,0.60
2018-10-07T15:21:32.845Z,1.17
2018-10-07T15:24:01.306Z,0.60
2018-10-07T15:26:29.712Z,1.93
2018-10-07T15:28:58.149Z,0.50
2018-10-07T15:31:26.552Z,0.40
2018-10-07T15:33:54.979Z,0.60
2018-10-07T15:36:23.446Z,0.87
2018-10-07T15:38:51.881Z,1.33
2018-10-07T15:41:20.269Z,0.80
2018-10-07T15:43:48.742Z,1.80
2018-10-07T15:46:17.311Z,0.40
2018-10-07T15:48:45.762Z,1.37
2018-10-07T15:51:14.360Z,0.73
2018-10-07T15:53:42.889Z,0.60
2018-10-07T15:56:11.278Z,0.60
2018-10-07T15:58:39.697Z,1.20
2018-10-07T16:01:08.167Z,1.17
2018-10-07T16:03:36.576Z,1.47
2018-10-07T16:06:05.029Z,0.40
2018-10-07T16:08:33.758Z,0.93
2018-10-07T16:11:02.205Z,0.47
2018-10-07T16:13:30.621Z,1.00
2018-10-07T16:15:59.124Z,0.50
2018-10-07T16:18:27.622Z,0.80
2018-10-07T16:20:56.124Z,0.50
2018-10-07T16:23:24.573Z,1.30
2018-10-07T16:25:53.067Z,1.47
2018-10-07T16:28:21.743Z,1.40
2018-10-07T16:30:50.336Z,0.60
2018-10-07T16:33:19.114Z,1.67
2018-10-07T16:35:47.557Z,1.37
2018-10-07T16:38:15.951Z,1.87
2018-10-07T16:40:44.395Z,1.30
2018-10-07T16:43:12.869Z,0.50
2018-10-07T16:45:41.344Z,1.80
2018-10-07T16:48:10.111Z,0.80
2018-10-07T16:50:38.501Z,0.77
2018-10-07T16:53:06.901Z,4.23
2018-10-07T16:55:35.281Z,1.63
2018-10-07T16:58:03.703Z,1.27
2018-10-07T17:00:32.215Z,2.73
2018-10-07T17:03:00.655Z,1.00
2018-10-07T17:05:29.173Z,2.33
2018-10-07T17:07:57.698Z,2.07
2018-10-07T17:10:26.340Z,2.60
2018-10-07T17:12:55.094Z,1.27
2018-10-07T17:15:23.521Z,2.90
2018-10-07T17:17:53.111Z,1.73
2018-10-07T17:20:21.638Z,1.20
2018-10-07T17:22:50.031Z,0.70
2018-10-07T17:25:18.873Z,1.07
2018-10-07T17:27:47.344Z,2.60
2018-10-07T17:30:15.762Z,1.50
2018-10-07T17:32:44.655Z,1.60
2018-10-07T17:35:13.034Z,0.90
2018-10-07T17:37:41.486Z,1.03
2018-10-07T17:40:09.944Z,1.50
2018-10-07T17:42:38.383Z,0.60
2018-10-07T17:45:06.869Z,0.97
2018-10-07T17:47:35.333Z,2.20
2018-10-07T17:50:04.105Z,1.47
2018-10-07T17:52:32.606Z,1.70
2018-10-07T17:55:01.148Z,1.00
2018-10-07T17:57:29.575Z,0.60
2018-10-07T17:59:58.059Z,1.70
2018-10-07T18:02:26.592Z,2.73
2018-10-07T18:04:55.184Z,2.17
2018-10-07T18:07:23.735Z,1.67
2018-10-07T18:09:52.384Z,1.70
2018-10-07T18:12:20.812Z,1.43
2018-10-07T18:14:49.319Z,0.80
2018-10-07T18:17:17.756Z,4.67
2018-10-07T18:19:46.288Z,2.80
2018-10-07T18:22:14.749Z,1.57
2018-10-07T18:24:43.188Z,1.07
2018-10-07T18:27:11.713Z,1.93
2018-10-07T18:29:40.119Z,1.23
2018-10-07T18:32:08.518Z,1.77
2018-10-07T18:34:37.103Z,1.47
2018-10-07T18:37:05.637Z,1.80
2018-10-07T18:39:34.097Z,1.70
2018-10-07T18:42:02.992Z,2.47
2018-10-07T18:44:31.397Z,1.67
2018-10-07T18:46:59.821Z,1.87
2018-10-07T18:49:28.377Z,2.47
2018-10-07T18:51:56.772Z,2.57
2018-10-07T18:54:25.207Z,1.87
2018-10-07T18:56:53.666Z,1.60
2018-10-07T18:59:22.101Z,1.53
2018-10-07T19:01:50.567Z,2.10
2018-10-07T19:04:18.943Z,2.47
2018-10-07T19:06:47.340Z,1.87
2018-10-07T19:09:15.763Z,2.07
2018-10-07T19:11:44.196Z,3.03
2018-10-07T19:14:12.635Z,3.07
2018-10-07T19:16:41.153Z,3.30
2018-10-07T19:19:09.560Z,3.40
2018-10-07T19:21:37.893Z,3.17
2018-10-07T19:24:06.866Z,5.87
2018-10-07T19:26:35.392Z,7.40
2018-10-07T19:29:03.828Z,4.87
2018-10-07T19:31:32.213Z,4.53
2018-10-07T19:34:00.639Z,3.07
2018-10-07T19:36:29.134Z,3.20
2018-10-07T19:38:57.595Z,6.23
2018-10-07T19:41:25.978Z,6.37
2018-10-07T19:43:54.437Z,9.07
2018-10-07T19:46:22.927Z,6.27
2018-10-07T19:48:51.347Z,7.97
2018-10-07T19:51:19.756Z,7.43
2018-10-07T19:53:48.316Z,7.73
2018-10-07T19:56:16.740Z,7.77
2018-10-07T19:58:45.157Z,6.37
2018-10-07T20:01:13.504Z,3.87
2018-10-07T20:03:41.934Z,3.87
2018-10-07T20:06:10.398Z,3.00
2018-10-07T20:08:38.900Z,3.60
2018-10-07T20:11:07.428Z,4.90
2018-10-07T20:13:35.916Z,2.43
2018-10-07T20:16:04.404Z,2.57
2018-10-07T20:18:32.806Z,2.97
2018-10-07T20:21:01.274Z,2.90
2018-10-07T20:23:29.738Z,4.17
2018-10-07T20:25:58.176Z,5.97
2018-10-07T20:28:26.676Z,4.00
2018-10-07T20:30:55.097Z,4.50
2018-10-07T20:33:23.556Z,4.13
2018-10-07T20:35:51.977Z,5.60
2018-10-07T20:38:20.717Z,3.63
2018-10-07T20:40:49.288Z,2.83
2018-10-07T20:43:17.666Z,2.60
2018-10-07T20:45:46.723Z,2.97
2018-10-07T20:48:16.923Z,7.53
2018-10-07T20:50:45.359Z,5.90
2018-10-07T20:53:13.683Z,4.73
2018-10-07T20:55:42.179Z,3.73
2018-10-07T20:58:10.725Z,4.60
2018-10-07T21:00:39.107Z,2.80
2018-10-07T21:03:07.461Z,2.67
2018-10-07T21:05:35.864Z,3.50
2018-10-07T21:08:04.246Z,4.70
2018-10-07T21:10:32.635Z,5.43
2018-10-07T21:13:01.052Z,7.40
2018-10-07T21:15:29.493Z,4.00
2018-10-07T21:17:57.898Z,4.10
2018-10-07T21:20:26.281Z,5.50
2018-10-07T21:22:54.623Z,5.73
2018-10-07T21:25:23.000Z,3.57
2018-10-07T21:27:51.591Z,8.40
2018-10-07T21:30:20.036Z,12.60
2018-10-07T21:32:48.414Z,5.87
2018-10-07T21:35:16.841Z,4.00
2018-10-07T21:37:45.265Z,7.87
2018-10-07T21:40:13.633Z,5.00
2018-10-07T21:42:42.002Z,3.93
2018-10-07T21:45:10.941Z,4.47
2018-10-07T21:47:39.353Z,3.73
2018-10-07T21:50:07.769Z,3.70
2018-10-07T21:52:36.311Z,7.67
2018-10-07T21:55:04.662Z,5.30
2018-10-07T21:57:33.080Z,5.50
2018-10-07T22:00:01.480Z,4.27
2018-10-07T22:02:29.876Z,3.70
2018-10-07T22:04:59.700Z,6.03
2018-10-07T22:07:28.098Z,4.90
2018-10-07T22:09:56.534Z,5.87
2018-10-07T22:12:24.874Z,4.20
2018-10-07T22:14:53.510Z,5.13
2018-10-07T22:17:21.951Z,5.03
2018-10-07T22:19:50.426Z,3.50
2018-10-07T22:22:18.785Z,4.57
2018-10-07T22:24:47.244Z,5.77
2018-10-07T22:27:15.616Z,4.30
2018-10-07T22:29:44.024Z,4.87
2018-10-07T22:32:12.424Z,4.07
2018-10-07T22:34:40.808Z,3.50
2018-10-07T22:37:09.212Z,3.80
2018-10-07T22:39:37.614Z,3.63
2018-10-07T22:42:06.049Z,3.30
2018-10-07T22:44:34.419Z,4.30
2018-10-07T22:47:04.442Z,3.90
2018-10-07T22:49:32.783Z,3.20
2018-10-07T22:52:01.196Z,3.93
2018-10-07T22:54:29.544Z,5.50
2018-10-07T22:56:57.957Z,3.00
2018-10-07T22:59:26.325Z,3.10
2018-10-07T23:01:54.713Z,3.27
2018-10-07T23:04:23.348Z,3.30
2018-10-07T23:06:51.832Z,3.53
2018-10-07T23:09:20.219Z,5.23
2018-10-07T23:11:48.587Z,7.13
2018-10-07T23:14:16.949Z,3.13
2018-10-07T23:16:45.442Z,2.97
2018-10-07T23:19:13.810Z,4.07
2018-10-07T23:21:42.203Z,4.17
2018-10-07T23:24:10.563Z,4.07
2018-10-07T23:26:38.972Z,3.13
2018-10-07T23:29:07.363Z,4.53
2018-10-07T23:31:35.716Z,3.50
2018-10-07T23:34:04.109Z,5.07
2018-10-07T23:36:32.482Z,3.13
2018-10-07T23:39:01.003Z,2.67
2018-10-07T23:41:29.406Z,4.00
2018-10-07T23:43:57.796Z,3.70
2018-10-07T23:46:26.371Z,2.77
2018-10-07T23:48:54.724Z,3.40
2018-10-07T23:51:23.134Z,3.53
2018-10-07T23:53:51.539Z,2.90
2018-10-07T23:56:19.970Z,6.30
2018-10-07T23:58:48.384Z,3.67
